createdAt,value
2019-04-22T00:00:53.834Z,1008.75
2019-04-22T00:01:58.178Z,1008.70
2019-04-22T00:02:57.609Z,1008.72
2019-04-22T00:03:55.140Z,1008.68
2019-04-22T00:05:01.065Z,1008.70
2019-04-22T00:06:12.860Z,1008.67
2019-04-22T00:07:17.410Z,1008.66
2019-04-22T00:08:16.739Z,1008.65
2019-04-22T00:09:19.232Z,1008.63
2019-04-22T00:10:19.355Z,1008.65
2019-04-22T00:11:23.583Z,1008.65
2019-04-22T00:12:22.263Z,1008.62
2019-04-22T00:13:18.595Z,1008.62
2019-04-22T00:14:15.886Z,1008.61
2019-04-22T00:15:09.778Z,1008.60
2019-04-22T00:16:22.620Z,1008.59
2019-04-22T00:17:27.753Z,1008.57
2019-04-22T00:18:36.179Z,1008.56
2019-04-22T00:20:14.414Z,1008.49
2019-04-22T00:21:19.870Z,1008.51
2019-04-22T00:22:15.250Z,1008.45
2019-04-22T00:23:15.323Z,1008.46
2019-04-22T00:24:20.465Z,1008.43
2019-04-22T00:25:19.542Z,1008.42
2019-04-22T00:26:16.454Z,1008.41
2019-04-22T00:27:20.295Z,1008.41
2019-04-22T00:28:16.010Z,1008.38
2019-04-22T00:29:37.102Z,1008.31
2019-04-22T00:30:18.159Z,1008.37
2019-04-22T00:31:15.495Z,1008.34
2019-04-22T00:32:11.474Z,1008.31
2019-04-22T00:33:13.333Z,1008.28
2019-04-22T00:34:14.442Z,1008.26
2019-04-22T00:35:16.621Z,1008.29
2019-04-22T00:36:20.624Z,1008.29
2019-04-22T00:37:19.798Z,1008.25
2019-04-22T00:38:21.918Z,1008.25
2019-04-22T00:39:06.870Z,1008.26
2019-04-22T00:40:22.368Z,1008.25
2019-04-22T00:41:13.251Z,1008.20
2019-04-22T00:42:15.323Z,1008.21
2019-04-22T00:43:13.342Z,1008.22
2019-04-22T00:44:19.082Z,1008.17
2019-04-22T00:45:24.401Z,1008.19
2019-04-22T00:46:17.942Z,1008.20
2019-04-22T00:47:16.421Z,1008.19
2019-04-22T00:48:21.987Z,1008.18
2019-04-22T00:50:20.369Z,1008.21
2019-04-22T00:52:18.293Z,1008.16
2019-04-22T00:53:20.463Z,1008.18
2019-04-22T00:54:18.141Z,1008.17
2019-04-22T00:57:19.965Z,1008.12
2019-04-22T00:58:16.731Z,1008.15
2019-04-22T00:59:14.393Z,1008.15
2019-04-22T01:00:17.650Z,1008.14
2019-04-22T01:02:15.283Z,1008.15
2019-04-22T01:03:19.982Z,1008.11
2019-04-22T01:04:25.041Z,1008.08
2019-04-22T01:05:15.366Z,1008.08
2019-04-22T01:06:16.151Z,1008.10
2019-04-22T01:07:15.488Z,1008.08
2019-04-22T01:08:26.696Z,1008.05
2019-04-22T01:09:33.011Z,1008.08
2019-04-22T01:10:19.073Z,1008.08
2019-04-22T01:11:17.144Z,1008.07
2019-04-22T01:13:12.525Z,1008.05
2019-04-22T01:14:13.081Z,1008.04
2019-04-22T01:15:20.840Z,1008.05
2019-04-22T01:16:17.729Z,1008.03
2019-04-22T01:17:16.529Z,1008.01
2019-04-22T01:18:13.236Z,1008.03
2019-04-22T01:19:19.825Z,1008.04
2019-04-22T01:20:38.530Z,1008.01
2019-04-22T01:22:12.904Z,1008.00
2019-04-22T01:23:10.957Z,1007.98
2019-04-22T01:24:13.324Z,1007.96
2019-04-22T01:25:07.981Z,1007.95
2019-04-22T01:27:08.019Z,1007.90
2019-04-22T01:28:06.415Z,1007.86
2019-04-22T01:29:02.472Z,1007.85
2019-04-22T01:30:04.260Z,1007.88
2019-04-22T01:30:59.444Z,1007.88
2019-04-22T01:31:51.063Z,1007.85
2019-04-22T01:32:53.912Z,1007.83
2019-04-22T01:34:08.294Z,1007.84
2019-04-22T01:35:03.430Z,1007.78
2019-04-22T01:36:12.330Z,1007.79
2019-04-22T01:37:07.984Z,1007.78
2019-04-22T01:38:07.882Z,1007.77
2019-04-22T01:39:18.059Z,1007.78
2019-04-22T01:40:16.664Z,1007.77
2019-04-22T01:41:16.499Z,1007.75
2019-04-22T01:42:12.070Z,1007.74
2019-04-22T01:43:16.874Z,1007.74
2019-04-22T01:44:21.581Z,1007.75
2019-04-22T01:45:19.362Z,1007.72
2019-04-22T01:46:18.407Z,1007.73
2019-04-22T01:47:21.401Z,1007.68
2019-04-22T01:48:17.985Z,1007.70
2019-04-22T01:49:17.368Z,1007.68
2019-04-22T01:50:16.738Z,1007.68
2019-04-22T01:51:04.848Z,1007.66
2019-04-22T01:52:15.765Z,1007.68
2019-04-22T01:53:19.360Z,1007.66
2019-04-22T01:54:25.106Z,1007.64
2019-04-22T01:55:17.804Z,1007.64
2019-04-22T01:56:14.015Z,1007.61
2019-04-22T01:57:11.622Z,1007.60
2019-04-22T01:58:11.006Z,1007.61
2019-04-22T01:59:06.316Z,1007.61
2019-04-22T02:00:09.054Z,1007.65
2019-04-22T02:01:18.574Z,1007.66
2019-04-22T02:02:18.922Z,1007.67
2019-04-22T02:03:17.764Z,1007.58
2019-04-22T02:04:21.534Z,1007.60
2019-04-22T02:05:17.772Z,1007.57
2019-04-22T02:06:17.165Z,1007.62
2019-04-22T02:07:16.769Z,1007.60
2019-04-22T02:08:28.436Z,1007.55
2019-04-22T02:10:19.532Z,1007.55
2019-04-22T02:11:24.105Z,1007.57
2019-04-22T02:12:19.963Z,1007.54
2019-04-22T02:13:15.939Z,1007.56
2019-04-22T02:14:20.371Z,1007.52
2019-04-22T02:15:19.691Z,1007.53
2019-04-22T02:16:14.239Z,1007.48
2019-04-22T02:17:17.597Z,1007.48
2019-04-22T02:18:23.090Z,1007.50
2019-04-22T02:19:17.304Z,1007.49
2019-04-22T02:20:31.467Z,1007.48
2019-04-22T02:21:13.805Z,1007.49
2019-04-22T02:22:24.829Z,1007.45
2019-04-22T02:24:18.527Z,1007.40
2019-04-22T02:25:15.549Z,1007.42
2019-04-22T02:27:17.714Z,1007.41
2019-04-22T02:28:25.705Z,1007.41
2019-04-22T02:29:16.817Z,1007.38
2019-04-22T02:30:16.623Z,1007.41
2019-04-22T02:32:28.255Z,1007.39
2019-04-22T02:33:46.673Z,1007.38
2019-04-22T02:34:31.144Z,1007.34
2019-04-22T02:35:24.016Z,1007.31
2019-04-22T02:36:27.901Z,1007.31
2019-04-22T02:37:21.211Z,1007.29
2019-04-22T02:38:37.984Z,1007.31
2019-04-22T02:39:13.527Z,1007.29
2019-04-22T02:40:17.167Z,1007.26
2019-04-22T02:42:21.586Z,1007.28
2019-04-22T02:45:23.148Z,1007.23
2019-04-22T02:46:49.972Z,1007.22
2019-04-22T02:48:41.562Z,1007.14
2019-04-22T02:50:23.950Z,1007.14
2019-04-22T02:51:28.272Z,1007.12
2019-04-22T02:53:29.401Z,1007.11
2019-04-22T02:55:15.400Z,1007.09
2019-04-22T02:56:27.474Z,1007.10
2019-04-22T02:57:36.106Z,1007.13
2019-04-22T02:58:25.680Z,1007.07
2019-04-22T02:59:22.308Z,1007.12
2019-04-22T03:00:21.549Z,1007.11
2019-04-22T03:02:23.453Z,1007.07
2019-04-22T03:03:31.390Z,1007.08
2019-04-22T03:04:20.764Z,1007.05
2019-04-22T03:05:27.431Z,1007.03
2019-04-22T03:07:16.466Z,1007.03
2019-04-22T03:08:23.920Z,1007.03
2019-04-22T03:09:19.054Z,1007.01
2019-04-22T03:10:24.579Z,1007.00
2019-04-22T03:11:25.438Z,1007.00
2019-04-22T03:12:29.039Z,1007.01
2019-04-22T03:14:11.807Z,1006.97
2019-04-22T03:15:11.783Z,1006.98
2019-04-22T03:17:22.017Z,1006.93
2019-04-22T03:19:26.178Z,1006.93
2019-04-22T03:20:14.491Z,1006.92
2019-04-22T03:21:18.009Z,1006.88
2019-04-22T03:22:16.168Z,1006.91
2019-04-22T03:23:25.461Z,1006.87
2019-04-22T03:24:36.203Z,1006.90
2019-04-22T03:27:07.812Z,1006.88
2019-04-22T03:28:23.664Z,1006.88
2019-04-22T03:31:34.447Z,1006.84
2019-04-22T03:36:58.241Z,1006.80
2019-04-22T03:38:34.989Z,1006.80
2019-04-22T03:39:37.767Z,1006.79
2019-04-22T03:40:44.195Z,1006.81
2019-04-22T03:41:31.246Z,1006.81
2019-04-22T03:42:11.608Z,1006.80
2019-04-22T03:43:43.791Z,1006.83
2019-04-22T03:44:35.867Z,1006.84
2019-04-22T03:46:21.512Z,1006.81
2019-04-22T03:47:33.870Z,1006.80
2019-04-22T03:51:27.715Z,1006.74
2019-04-22T03:53:38.521Z,1006.75
2019-04-22T03:54:39.932Z,1006.76
2019-04-22T03:55:28.993Z,1006.72
2019-04-22T03:56:52.145Z,1006.72
2019-04-22T03:58:11.141Z,1006.73
2019-04-22T03:59:29.510Z,1006.71
2019-04-22T04:00:26.519Z,1006.69
2019-04-22T04:01:29.601Z,1006.69
2019-04-22T04:02:29.264Z,1006.70
2019-04-22T04:03:19.317Z,1006.69
2019-04-22T04:05:33.418Z,1006.70
2019-04-22T04:06:20.770Z,1006.70
2019-04-22T04:07:38.294Z,1006.69
2019-04-22T04:08:19.730Z,1006.70
2019-04-22T04:09:33.797Z,1006.67
2019-04-22T04:10:30.603Z,1006.68
2019-04-22T04:11:26.836Z,1006.68
2019-04-22T04:13:16.805Z,1006.68
2019-04-22T04:14:30.216Z,1006.65
2019-04-22T04:15:19.060Z,1006.68
2019-04-22T04:16:27.623Z,1006.66
2019-04-22T04:17:26.149Z,1006.68
2019-04-22T04:18:41.145Z,1006.70
2019-04-22T04:19:30.345Z,1006.72
2019-04-22T04:22:27.014Z,1006.67
2019-04-22T04:22:30.650Z,1006.70
2019-04-22T04:24:32.857Z,1006.68
2019-04-22T04:25:32.556Z,1006.70
2019-04-22T04:26:17.374Z,1006.68
2019-04-22T04:28:47.715Z,1006.68
2019-04-22T04:31:26.694Z,1006.69
2019-04-22T04:32:36.679Z,1006.65
2019-04-22T04:33:23.253Z,1006.66
2019-04-22T04:34:32.660Z,1006.67
2019-04-22T04:35:32.402Z,1006.62
2019-04-22T04:36:16.548Z,1006.61
2019-04-22T04:38:13.000Z,1006.57
2019-04-22T04:39:21.380Z,1006.60
2019-04-22T04:40:26.813Z,1006.61
2019-04-22T04:41:30.870Z,1006.59
2019-04-22T04:43:19.013Z,1006.59
2019-04-22T04:44:22.666Z,1006.58
2019-04-22T04:46:27.219Z,1006.61
2019-04-22T04:48:20.997Z,1006.59
2019-04-22T04:49:39.330Z,1006.58
2019-04-22T04:51:26.940Z,1006.60
2019-04-22T04:52:35.342Z,1006.61
2019-04-22T04:53:29.306Z,1006.55
2019-04-22T04:56:20.480Z,1006.59
2019-04-22T04:57:23.979Z,1006.60
2019-04-22T04:59:29.905Z,1006.62
2019-04-22T05:01:27.074Z,1006.57
2019-04-22T05:02:24.203Z,1006.60
2019-04-22T05:03:27.752Z,1006.59
2019-04-22T05:04:26.406Z,1006.55
2019-04-22T05:05:16.667Z,1006.57
2019-04-22T05:06:21.439Z,1006.59
2019-04-22T05:08:33.049Z,1006.53
2019-04-22T05:09:26.033Z,1006.57
2019-04-22T05:12:24.537Z,1006.52
2019-04-22T05:13:10.451Z,1006.57
2019-04-22T05:15:18.486Z,1006.53
2019-04-22T05:17:18.333Z,1006.53
2019-04-22T05:18:23.957Z,1006.55
2019-04-22T05:19:16.035Z,1006.55
2019-04-22T05:22:14.955Z,1006.52
2019-04-22T05:23:16.204Z,1006.57
2019-04-22T05:24:16.580Z,1006.52
2019-04-22T05:26:27.726Z,1006.52
2019-04-22T05:27:20.482Z,1006.55
2019-04-22T05:28:12.194Z,1006.52
2019-04-22T05:29:09.604Z,1006.51
2019-04-22T05:30:23.473Z,1006.49
2019-04-22T05:31:15.785Z,1006.52
2019-04-22T05:32:12.023Z,1006.55
2019-04-22T05:33:08.480Z,1006.49
2019-04-22T05:35:17.193Z,1006.50
2019-04-22T05:36:14.340Z,1006.45
2019-04-22T05:37:14.715Z,1006.47
2019-04-22T05:39:11.214Z,1006.44
2019-04-22T05:40:16.314Z,1006.47
2019-04-22T05:41:08.826Z,1006.41
2019-04-22T05:42:16.493Z,1006.46
2019-04-22T05:43:09.641Z,1006.42
2019-04-22T05:46:09.608Z,1006.43
2019-04-22T05:47:08.365Z,1006.44
2019-04-22T05:48:09.423Z,1006.43
2019-04-22T05:49:13.450Z,1006.40
2019-04-22T05:50:10.879Z,1006.42
2019-04-22T05:51:09.708Z,1006.43
2019-04-22T05:52:09.610Z,1006.40
2019-04-22T05:53:07.124Z,1006.41
2019-04-22T05:54:19.045Z,1006.38
2019-04-22T05:55:16.328Z,1006.39
2019-04-22T05:56:23.570Z,1006.40
2019-04-22T05:57:14.459Z,1006.37
2019-04-22T05:58:10.420Z,1006.41
2019-04-22T05:59:12.405Z,1006.38
2019-04-22T06:00:14.632Z,1006.38
2019-04-22T06:02:17.134Z,1006.33
2019-04-22T06:03:12.333Z,1006.37
2019-04-22T06:04:14.643Z,1006.39
2019-04-22T06:05:14.645Z,1006.37
2019-04-22T06:06:14.377Z,1006.39
2019-04-22T06:07:06.698Z,1006.40
2019-04-22T06:08:13.368Z,1006.38
2019-04-22T06:09:12.616Z,1006.39
2019-04-22T06:11:17.336Z,1006.36
2019-04-22T06:12:04.905Z,1006.42
2019-04-22T06:13:07.711Z,1006.42
2019-04-22T06:14:12.271Z,1006.39
2019-04-22T06:15:13.218Z,1006.43
2019-04-22T06:16:16.190Z,1006.39
2019-04-22T06:17:12.378Z,1006.40
2019-04-22T06:18:20.897Z,1006.41
2019-04-22T06:19:14.344Z,1006.41
2019-04-22T06:20:10.059Z,1006.40
2019-04-22T06:21:11.559Z,1006.42
2019-04-22T06:22:16.850Z,1006.43
2019-04-22T06:23:12.619Z,1006.42
2019-04-22T06:24:16.759Z,1006.45
2019-04-22T06:28:22.248Z,1006.42
2019-04-22T06:30:17.547Z,1006.38
2019-04-22T06:31:16.145Z,1006.42
2019-04-22T06:33:15.267Z,1006.42
2019-04-22T06:35:18.450Z,1006.39
2019-04-22T06:36:10.752Z,1006.36
2019-04-22T06:37:13.050Z,1006.34
2019-04-22T06:38:28.594Z,1006.42
2019-04-22T06:39:17.357Z,1006.41
2019-04-22T06:40:16.516Z,1006.45
2019-04-22T06:41:16.454Z,1006.39
2019-04-22T06:43:21.977Z,1006.42
2019-04-22T06:44:26.067Z,1006.42
2019-04-22T06:45:13.811Z,1006.40
2019-04-22T06:46:14.698Z,1006.44
2019-04-22T06:47:14.820Z,1006.43
2019-04-22T06:48:17.893Z,1006.41
2019-04-22T06:49:11.189Z,1006.47
2019-04-22T06:50:19.941Z,1006.42
2019-04-22T06:51:06.832Z,1006.44
2019-04-22T06:52:14.148Z,1006.43
2019-04-22T06:53:11.627Z,1006.41
2019-04-22T06:54:07.737Z,1006.44
2019-04-22T06:55:16.778Z,1006.42
2019-04-22T06:56:14.219Z,1006.44
2019-04-22T06:57:05.887Z,1006.41
2019-04-22T06:58:10.650Z,1006.41
2019-04-22T06:59:16.877Z,1006.37
2019-04-22T07:00:10.719Z,1006.41
2019-04-22T07:01:09.526Z,1006.37
2019-04-22T07:02:10.081Z,1006.41
2019-04-22T07:04:23.229Z,1006.42
2019-04-22T07:05:08.187Z,1006.40
2019-04-22T07:06:13.123Z,1006.44
2019-04-22T07:08:30.386Z,1006.38
2019-04-22T07:09:33.521Z,1006.42
2019-04-22T07:10:26.457Z,1006.44
2019-04-22T07:11:11.449Z,1006.44
2019-04-22T07:12:13.078Z,1006.40
2019-04-22T07:13:11.643Z,1006.46
2019-04-22T07:14:04.230Z,1006.46
2019-04-22T07:15:11.027Z,1006.41
2019-04-22T07:16:03.987Z,1006.41
2019-04-22T07:17:08.851Z,1006.37
2019-04-22T07:18:11.940Z,1006.39
2019-04-22T07:19:12.211Z,1006.34
2019-04-22T07:20:10.728Z,1006.35
2019-04-22T07:21:06.575Z,1006.32
2019-04-22T07:22:11.893Z,1006.36
2019-04-22T07:23:19.066Z,1006.32
2019-04-22T07:25:09.931Z,1006.32
2019-04-22T07:26:09.799Z,1006.30
2019-04-22T07:27:18.785Z,1006.30
2019-04-22T07:28:14.281Z,1006.31
2019-04-22T07:29:09.036Z,1006.31
2019-04-22T07:30:17.283Z,1006.35
2019-04-22T07:31:10.362Z,1006.36
2019-04-22T07:32:10.086Z,1006.35
2019-04-22T07:34:16.320Z,1006.36
2019-04-22T07:35:15.117Z,1006.32
2019-04-22T07:36:30.825Z,1006.32
2019-04-22T07:37:23.074Z,1006.31
2019-04-22T07:38:10.876Z,1006.27
2019-04-22T07:39:10.094Z,1006.29
2019-04-22T07:40:09.833Z,1006.30
2019-04-22T07:41:05.364Z,1006.31
2019-04-22T07:42:12.694Z,1006.23
2019-04-22T07:43:15.220Z,1006.31
2019-04-22T07:44:24.165Z,1006.25
2019-04-22T07:45:10.592Z,1006.25
2019-04-22T07:46:12.007Z,1006.29
2019-04-22T07:47:13.851Z,1006.27
2019-04-22T07:48:20.030Z,1006.28
2019-04-22T07:49:10.830Z,1006.24
2019-04-22T07:50:13.115Z,1006.23
2019-04-22T07:51:07.695Z,1006.23
2019-04-22T07:52:09.986Z,1006.19
2019-04-22T07:53:05.474Z,1006.19
2019-04-22T07:54:09.024Z,1006.21
2019-04-22T07:55:25.837Z,1006.23
2019-04-22T07:56:04.909Z,1006.22
2019-04-22T07:57:15.377Z,1006.16
2019-04-22T07:58:16.423Z,1006.14
2019-04-22T07:59:09.620Z,1006.10
2019-04-22T08:00:12.712Z,1006.12
2019-04-22T08:01:12.946Z,1006.13
2019-04-22T08:02:11.506Z,1006.14
2019-04-22T08:03:12.201Z,1006.19
2019-04-22T08:04:16.167Z,1006.13
2019-04-22T08:05:32.902Z,1006.10
2019-04-22T08:07:14.350Z,1006.10
2019-04-22T08:08:17.450Z,1006.09
2019-04-22T08:09:15.250Z,1006.09
2019-04-22T08:10:17.196Z,1006.10
2019-04-22T08:11:21.579Z,1006.05
2019-04-22T08:12:02.047Z,1006.07
2019-04-22T08:13:11.883Z,1006.04
2019-04-22T08:14:09.224Z,1006.08
2019-04-22T08:15:06.101Z,1006.07
2019-04-22T08:16:11.477Z,1006.03
2019-04-22T08:17:33.087Z,1006.02
2019-04-22T08:18:15.596Z,1006.08
2019-04-22T08:19:08.825Z,1006.06
2019-04-22T08:20:10.728Z,1006.06
2019-04-22T08:21:12.342Z,1006.08
2019-04-22T08:22:10.025Z,1006.06
2019-04-22T08:23:09.074Z,1006.04
2019-04-22T08:24:06.215Z,1006.02
2019-04-22T08:25:05.477Z,1005.99
2019-04-22T08:26:05.000Z,1005.98
2019-04-22T08:27:11.276Z,1005.97
2019-04-22T08:28:10.140Z,1005.99
2019-04-22T08:29:14.524Z,1006.00
2019-04-22T08:31:10.548Z,1006.02
2019-04-22T08:32:12.605Z,1005.99
2019-04-22T08:33:10.867Z,1005.99
2019-04-22T08:34:24.944Z,1006.02
2019-04-22T08:35:18.706Z,1005.98
2019-04-22T08:38:06.934Z,1005.96
2019-04-22T08:40:13.688Z,1005.91
2019-04-22T08:41:17.863Z,1005.94
2019-04-22T08:42:16.238Z,1005.94
2019-04-22T08:43:14.074Z,1005.89
2019-04-22T08:44:29.337Z,1005.86
2019-04-22T08:45:28.658Z,1005.86
2019-04-22T08:46:12.690Z,1005.88
2019-04-22T08:47:11.149Z,1005.82
2019-04-22T08:48:12.984Z,1005.81
2019-04-22T08:49:05.366Z,1005.81
2019-04-22T08:50:07.662Z,1005.85
2019-04-22T08:51:09.495Z,1005.81
2019-04-22T08:52:11.488Z,1005.79
2019-04-22T08:53:09.465Z,1005.80
2019-04-22T08:54:11.700Z,1005.79
2019-04-22T08:55:11.275Z,1005.81
2019-04-22T08:56:16.108Z,1005.78
2019-04-22T08:57:10.680Z,1005.81
2019-04-22T08:59:15.078Z,1005.80
2019-04-22T09:00:07.170Z,1005.79
2019-04-22T09:01:11.345Z,1005.79
2019-04-22T09:02:12.056Z,1005.71
2019-04-22T09:03:15.961Z,1005.72
2019-04-22T09:05:20.632Z,1005.72
2019-04-22T09:07:41.393Z,1005.64
2019-04-22T09:08:42.318Z,1005.65
2019-04-22T09:10:37.945Z,1005.64
2019-04-22T09:11:41.924Z,1005.63
2019-04-22T09:13:31.913Z,1005.57
2019-04-22T09:14:32.426Z,1005.63
2019-04-22T09:16:26.681Z,1005.53
2019-04-22T09:17:22.872Z,1005.52
2019-04-22T09:19:12.319Z,1005.53
2019-04-22T09:20:12.771Z,1005.54
2019-04-22T09:22:05.218Z,1005.50
2019-04-22T09:23:07.709Z,1005.47
2019-04-22T09:24:57.530Z,1005.50
2019-04-22T09:25:59.558Z,1005.44
2019-04-22T09:27:51.222Z,1005.43
2019-04-22T09:30:52.411Z,1005.41
2019-04-22T09:31:45.769Z,1005.40
2019-04-22T09:33:36.918Z,1005.42
2019-04-22T09:34:39.895Z,1005.42
2019-04-22T09:36:33.911Z,1005.39
2019-04-22T09:37:40.583Z,1005.43
2019-04-22T09:38:41.106Z,1005.37
2019-04-22T09:40:28.923Z,1005.35
2019-04-22T09:41:33.459Z,1005.36
2019-04-22T09:42:32.268Z,1005.33
2019-04-22T09:43:32.205Z,1005.33
2019-04-22T09:44:33.343Z,1005.31
2019-04-22T09:45:27.652Z,1005.29
2019-04-22T09:46:33.008Z,1005.30
2019-04-22T09:48:33.178Z,1005.30
2019-04-22T09:50:29.395Z,1005.28
2019-04-22T09:51:25.356Z,1005.31
2019-04-22T09:52:28.072Z,1005.27
2019-04-22T09:53:32.280Z,1005.31
2019-04-22T09:54:45.220Z,1005.26
2019-04-22T09:55:43.042Z,1005.25
2019-04-22T09:56:31.799Z,1005.23
2019-04-22T09:57:29.517Z,1005.17
2019-04-22T09:58:37.946Z,1005.20
2019-04-22T09:59:32.890Z,1005.16
2019-04-22T10:00:36.504Z,1005.17
2019-04-22T10:03:29.052Z,1005.10
2019-04-22T10:04:28.533Z,1005.04
2019-04-22T10:05:29.311Z,1005.07
2019-04-22T10:08:38.499Z,1005.04
2019-04-22T10:09:43.050Z,1004.99
2019-04-22T10:10:32.026Z,1005.00
2019-04-22T10:11:35.125Z,1005.01
2019-04-22T10:12:32.283Z,1005.00
2019-04-22T10:13:34.789Z,1005.00
2019-04-22T10:15:25.211Z,1004.97
2019-04-22T10:16:31.285Z,1004.96
2019-04-22T10:17:25.855Z,1004.97
2019-04-22T10:18:33.786Z,1005.01
2019-04-22T10:19:31.410Z,1004.97
2019-04-22T10:20:27.004Z,1004.90
2019-04-22T10:21:35.627Z,1004.91
2019-04-22T10:22:32.312Z,1004.88
2019-04-22T10:23:41.273Z,1004.84
2019-04-22T10:24:26.438Z,1004.82
2019-04-22T10:25:32.728Z,1004.86
2019-04-22T10:26:33.471Z,1004.82
2019-04-22T10:27:31.143Z,1004.77
2019-04-22T10:28:35.262Z,1004.80
2019-04-22T10:29:28.955Z,1004.81
2019-04-22T10:30:39.149Z,1004.73
2019-04-22T10:31:32.837Z,1004.72
2019-04-22T10:32:27.986Z,1004.72
2019-04-22T10:33:23.938Z,1004.71
2019-04-22T10:34:13.996Z,1004.72
2019-04-22T10:35:06.804Z,1004.70
2019-04-22T10:36:03.522Z,1004.67
2019-04-22T10:37:06.406Z,1004.68
2019-04-22T10:38:02.045Z,1004.64
2019-04-22T10:39:02.299Z,1004.67
2019-04-22T10:40:04.768Z,1004.64
2019-04-22T10:41:02.724Z,1004.65
2019-04-22T10:42:02.905Z,1004.57
2019-04-22T10:43:03.161Z,1004.58
2019-04-22T10:44:03.340Z,1004.59
2019-04-22T10:45:01.944Z,1004.61
2019-04-22T10:46:02.095Z,1004.59
2019-04-22T10:47:02.187Z,1004.61
2019-04-22T10:48:01.903Z,1004.55
2019-04-22T10:49:02.033Z,1004.54
2019-04-22T10:50:02.697Z,1004.56
2019-04-22T10:51:01.861Z,1004.53
2019-04-22T10:52:02.693Z,1004.54
2019-04-22T10:53:01.836Z,1004.49
2019-04-22T10:54:01.892Z,1004.50
2019-04-22T10:55:03.364Z,1004.50
2019-04-22T10:56:03.034Z,1004.49
2019-04-22T10:57:03.134Z,1004.49
2019-04-22T10:58:02.301Z,1004.47
2019-04-22T10:59:02.590Z,1004.41
2019-04-22T11:00:02.883Z,1004.41
2019-04-22T11:01:03.267Z,1004.43
2019-04-22T11:02:01.712Z,1004.40
2019-04-22T11:03:02.397Z,1004.39
2019-04-22T11:04:01.693Z,1004.42
2019-04-22T11:05:02.030Z,1004.39
2019-04-22T11:06:03.197Z,1004.34
2019-04-22T11:07:05.088Z,1004.35
2019-04-22T11:08:06.228Z,1004.36
2019-04-22T11:09:10.610Z,1004.38
2019-04-22T11:11:12.473Z,1004.31
2019-04-22T11:12:02.207Z,1004.39
2019-04-22T11:13:49.629Z,1004.30
2019-04-22T11:14:49.672Z,1004.30
2019-04-22T11:16:41.858Z,1004.26
2019-04-22T11:17:41.841Z,1004.24
2019-04-22T11:19:35.391Z,1004.11
2019-04-22T11:20:35.779Z,1004.16
2019-04-22T11:22:32.218Z,1004.19
2019-04-22T11:23:28.803Z,1004.16
2019-04-22T11:25:21.767Z,1004.12
2019-04-22T11:26:21.950Z,1004.17
2019-04-22T11:28:16.220Z,1004.10
2019-04-22T11:29:17.397Z,1004.10
2019-04-22T11:31:10.551Z,1004.11
2019-04-22T11:32:10.538Z,1004.14
2019-04-22T11:34:06.156Z,1004.02
2019-04-22T11:35:05.936Z,1004.03
2019-04-22T11:36:58.972Z,1004.04
2019-04-22T11:37:59.160Z,1004.03
2019-04-22T11:40:04.881Z,1004.04
2019-04-22T11:40:54.397Z,1004.00
2019-04-22T11:42:48.111Z,1003.95
2019-04-22T11:43:47.380Z,1003.95
2019-04-22T11:45:41.634Z,1003.90
2019-04-22T11:46:41.146Z,1003.89
2019-04-22T11:48:35.847Z,1003.96
2019-04-22T11:49:34.342Z,1003.91
2019-04-22T11:51:27.718Z,1003.87
2019-04-22T11:52:28.801Z,1003.88
2019-04-22T11:54:21.110Z,1003.92
2019-04-22T11:55:22.367Z,1003.85
2019-04-22T11:57:15.154Z,1003.83
2019-04-22T11:58:14.899Z,1003.85
2019-04-22T12:00:09.028Z,1003.76
2019-04-22T12:01:08.638Z,1003.86
2019-04-22T12:03:03.171Z,1003.89
2019-04-22T12:04:02.253Z,1003.83
2019-04-22T12:05:55.635Z,1003.75
2019-04-22T12:06:55.908Z,1003.75
2019-04-22T12:08:50.006Z,1003.78
2019-04-22T12:09:48.714Z,1003.74
2019-04-22T12:11:42.491Z,1003.76
2019-04-22T12:12:44.707Z,1003.74
2019-04-22T12:14:36.229Z,1003.66
2019-04-22T12:15:35.400Z,1003.66
2019-04-22T12:17:29.827Z,1003.58
2019-04-22T12:18:29.103Z,1003.58
2019-04-22T12:20:23.376Z,1003.59
2019-04-22T12:21:23.397Z,1003.56
2019-04-22T12:23:16.927Z,1003.48
2019-04-22T12:24:15.413Z,1003.52
2019-04-22T12:26:13.044Z,1003.49
2019-04-22T12:27:08.761Z,1003.45
2019-04-22T12:29:02.914Z,1003.49
2019-04-22T12:30:03.015Z,1003.42
2019-04-22T12:32:01.514Z,1003.42
2019-04-22T12:33:02.426Z,1003.39
2019-04-22T12:34:03.688Z,1003.36
2019-04-22T12:35:01.841Z,1003.39
2019-04-22T12:36:02.353Z,1003.35
2019-04-22T12:37:02.528Z,1003.31
2019-04-22T12:38:07.053Z,1003.33
2019-04-22T12:39:03.316Z,1003.29
2019-04-22T12:40:02.650Z,1003.28
2019-04-22T12:41:05.946Z,1003.22
2019-04-22T12:42:02.468Z,1003.25
2019-04-22T12:43:04.733Z,1003.25
2019-04-22T12:44:01.290Z,1003.22
2019-04-22T12:45:02.413Z,1003.19
2019-04-22T12:46:02.442Z,1003.26
2019-04-22T12:47:02.668Z,1003.20
2019-04-22T12:48:02.107Z,1003.14
2019-04-22T12:49:02.346Z,1003.12
2019-04-22T12:50:08.896Z,1003.14
2019-04-22T12:51:01.207Z,1003.05
2019-04-22T12:52:01.243Z,1003.05
2019-04-22T12:53:06.517Z,1003.06
2019-04-22T12:54:01.419Z,1003.04
2019-04-22T12:55:01.590Z,1002.99
2019-04-22T12:56:01.251Z,1002.94
2019-04-22T12:57:01.704Z,1002.96
2019-04-22T12:58:02.833Z,1002.89
2019-04-22T12:59:01.365Z,1002.93
2019-04-22T13:00:01.900Z,1002.92
2019-04-22T13:01:01.315Z,1002.95
2019-04-22T13:02:01.090Z,1002.91
2019-04-22T13:03:01.233Z,1002.92
2019-04-22T13:04:05.806Z,1002.89
2019-04-22T13:05:01.069Z,1002.85
2019-04-22T13:06:01.597Z,1002.86
2019-04-22T13:07:01.840Z,1002.78
2019-04-22T13:08:02.074Z,1002.89
2019-04-22T13:09:02.177Z,1002.86
2019-04-22T13:10:01.461Z,1002.81
2019-04-22T13:11:08.648Z,1002.75
2019-04-22T13:12:01.270Z,1002.81
2019-04-22T13:13:01.068Z,1002.79
2019-04-22T13:14:01.045Z,1002.79
2019-04-22T13:15:01.526Z,1002.76
2019-04-22T13:16:02.686Z,1002.74
2019-04-22T13:17:02.044Z,1002.73
2019-04-22T13:18:10.585Z,1002.70
2019-04-22T13:19:06.933Z,1002.71
2019-04-22T13:20:02.493Z,1002.69
2019-04-22T13:21:02.047Z,1002.64
2019-04-22T13:22:02.796Z,1002.61
2019-04-22T13:23:02.156Z,1002.62
2019-04-22T13:24:02.721Z,1002.55
2019-04-22T13:25:02.044Z,1002.56
2019-04-22T13:26:01.015Z,1002.56
2019-04-22T13:27:01.253Z,1002.55
2019-04-22T13:28:01.064Z,1002.56
2019-04-22T13:29:01.086Z,1002.54
2019-04-22T13:30:04.248Z,1002.43
2019-04-22T13:31:02.012Z,1002.40
2019-04-22T13:32:00.908Z,1002.40
2019-04-22T13:33:00.990Z,1002.39
2019-04-22T13:34:03.566Z,1002.43
2019-04-22T13:35:02.148Z,1002.42
2019-04-22T13:36:01.693Z,1002.44
2019-04-22T13:37:01.222Z,1002.39
2019-04-22T13:38:01.216Z,1002.39
2019-04-22T13:39:00.881Z,1002.49
2019-04-22T13:40:01.257Z,1002.42
2019-04-22T13:41:14.587Z,1002.40
2019-04-22T13:42:03.933Z,1002.36
2019-04-22T13:43:01.110Z,1002.48
2019-04-22T13:44:02.020Z,1002.40
2019-04-22T13:45:01.950Z,1002.40
2019-04-22T13:46:01.786Z,1002.40
2019-04-22T13:47:15.720Z,1002.37
2019-04-22T13:48:18.353Z,1002.36
2019-04-22T13:49:37.781Z,1002.35
2019-04-22T13:50:36.065Z,1002.29
2019-04-22T13:51:32.452Z,1002.29
2019-04-22T13:52:40.878Z,1002.35
2019-04-22T13:55:36.645Z,1002.29
2019-04-22T13:56:20.666Z,1002.32
2019-04-22T13:57:22.163Z,1002.29
2019-04-22T13:58:14.624Z,1002.29
2019-04-22T13:59:12.671Z,1002.33
2019-04-22T14:00:02.782Z,1002.33
2019-04-22T14:01:00.861Z,1002.24
2019-04-22T14:02:00.892Z,1002.30
2019-04-22T14:03:00.783Z,1002.21
2019-04-22T14:04:02.569Z,1002.24
2019-04-22T14:05:01.108Z,1002.25
2019-04-22T14:06:00.978Z,1002.31
2019-04-22T14:07:00.989Z,1002.24
2019-04-22T14:08:02.595Z,1002.20
2019-04-22T14:09:01.167Z,1002.18
2019-04-22T14:10:02.474Z,1002.19
2019-04-22T14:11:13.181Z,1002.17
2019-04-22T14:12:05.188Z,1002.18
2019-04-22T14:13:03.722Z,1002.17
2019-04-22T14:14:00.955Z,1002.18
2019-04-22T14:15:02.124Z,1002.19
2019-04-22T14:16:01.332Z,1002.20
2019-04-22T14:17:00.823Z,1002.19
2019-04-22T14:18:01.021Z,1002.12
2019-04-22T14:19:02.024Z,1002.06
2019-04-22T14:20:02.486Z,1002.06
2019-04-22T14:21:02.856Z,1002.09